Airfield :







YOU CAN JOIN US ON...

 
LOGIN :

Register | Disclaimer

   EN    FR    IT 

 









Legend :    VFR   Marginal VFR   IFR   Intensive IFR   Very Intensive IFR
Visi :
Ceiling :
>= 8 km
>= 3000ft
5 to 8 km
1000 to 3000 ft
1500m to 5 km
500 to 1000 ft
800 to 1500m
200 to 500 ft
< 800m
< 200 ft
Symbols :   Thunderstorms  Fog  Heavy snow  Heavy precipitations  Wind > 20 kt






- Airport Elevation : 180 ft
- IATA code : YZV


CYZV - Sept-Iles

CURRENT METAR :
  • 251800Z 14006KT 30SM BKN190 14/03 A3001 RMK CI7 PRESFR SLP166

EXPIRED METARs :
  • 251700Z 15006KT 30SM FEW090 BKN200 14/03 A3003 RMK AC1CI5 AC TR SLP173
  • 251600Z 14009KT 30SM FEW160 SCT200 12/04 A3005 RMK AC1CI3 AC TR SLP178

TAF TAF CYZV
Valid from the 25 at 18:00 until the 26 at 18:00 UTC


251733Z 2518/2618 15005KT P6SM FEW090 BKN200
BECMG 2522/2524 12008KT
FM260200 06008KT P6SM BKN080
BECMG 2604/2606 VRB03KT
FM260900 VRB03KT P6SM BKN030
BECMG 2612/2614 23008KT
FM261600 32010KT P6SM -SHRA OVC030 RMK NXT FCST BY 260000Z
CZUL FIR / North America



MET'MAP, your aeronautical weather chart ! - Copyright ORBIFLY December 2007 - Disclaimer

ORBIFLY MET'MAP TEAM :

Programming & Development : Alexandra Zaïnal
Concept & original design : Baudouin d'Aumeries
Assistance for programming : Marc-Olivier Méhu
Technical & hardware support : Manuel Goepfert

Contact : metmap@orbifly.com




SOURCES & CREDITS :

   NOAA